Terminal Aerodrome Forecast
Issued by NWS

Home | Current Version | Previous Version | Text Only | Print | Product List | Glossary On
Versions: 1 2 3 4 5 6 7 8 9 10 11 12 13 14 15 16 17
000
FTUS45 KRIW 181730
TAFCOD
TAF
KCOD 181730Z 1818/1918 26025G35KT P6SM SCT080 SCT200
     FM182300 25020G30KT P6SM SCT080 BKN200
     FM190500 24015G25KT P6SM SCT200
     FM191000 24012G20KT P6SM SCT200 WS010/24045KT
     FM191700 24010G15KT P6SM BKN120
      AMD LTD TO CLD VIS AND WIND=

USA.gov is the U.S. government's official web portal to all federal, state and local government web resources and services.